Time;durP1;ratioP1;P1;durP2;ratioP2;P2;SDS_P1;SDS_P2;PMS_P1;PMS_P2;Temp;Humidity;BMP_temperature;BMP_pressure;BME280_temperature;BME280_humidity;BME280_pressure;Samples;Min_cycle;Max_cycle;Signal;HPM_P1;HPM_P2
2021/10/22 00:00:09;;;;;;;;;;;15.10;99.90;;;;;;4975888;28;20409;-69
2021/10/22 00:02:35;;;;;;;;;;;15.10;99.90;;;;;;4976161;28;19932;-69
2021/10/22 00:05:01;;;;;;;;;;;15.00;99.90;;;;;;4974557;28;20001;-69
2021/10/22 00:07:26;;;;;;;;;;;15.10;99.90;;;;;;4974539;28;19996;-69
2021/10/22 00:09:52;;;;;;;;;;;15.10;99.90;;;;;;4975762;28;19914;-70
2021/10/22 00:12:18;;;;;;;;;;;15.10;99.90;;;;;;4974527;28;19906;-71
2021/10/22 00:14:44;;;;;;;;;;;15.10;99.90;;;;;;4974395;28;19906;-69
2021/10/22 00:17:10;;;;;;;;;;;15.10;99.90;;;;;;4975206;28;20430;-69
2021/10/22 00:19:36;;;;;;;;;;;15.10;99.90;;;;;;4975483;28;19917;-69
2021/10/22 00:22:01;;;;;;;;;;;15.10;99.90;;;;;;4975627;28;19914;-69
2021/10/22 00:24:27;;;;;;;;;;;15.00;99.90;;;;;;4975536;28;20243;-68
2021/10/22 00:26:53;;;;;;;;;;;15.10;99.90;;;;;;4973931;28;20315;-69
2021/10/22 00:29:19;;;;;;;;;;;15.00;99.90;;;;;;4975435;28;19906;-69
2021/10/22 00:31:44;;;;;;;;;;;15.10;99.90;;;;;;4974372;28;19906;-69
2021/10/22 00:34:10;;;;;;;;;;;15.00;99.90;;;;;;4975680;28;19906;-68
2021/10/22 00:36:36;;;;;;;;;;;15.00;99.90;;;;;;4974049;28;19928;-69
2021/10/22 00:39:03;;;;;;;;;;;15.00;99.90;;;;;;4973983;28;19973;-70
2021/10/22 00:41:28;;;;;;;;;;;15.00;99.90;;;;;;4973997;28;19914;-69
2021/10/22 00:43:54;;;;;;;;;;;15.10;99.90;;;;;;4975278;28;19913;-70
2021/10/22 00:46:23;;;;;;;;;;;15.10;99.90;;;;;;4975198;28;20397;-70
2021/10/22 00:48:49;;;;;;;;;;;15.10;99.90;;;;;;4975159;28;19917;-70
2021/10/22 00:51:16;;;;;;;;;;;15.10;99.90;;;;;;4975108;28;19906;-69
2021/10/22 00:53:42;;;;;;;;;;;15.10;99.90;;;;;;4975117;28;19997;-69
2021/10/22 00:56:09;;;;;;;;;;;15.10;99.90;;;;;;4973732;28;19906;-68
2021/10/22 00:58:36;;;;;;;;;;;15.00;99.90;;;;;;4973653;28;19913;-70
2021/10/22 01:01:02;;;;;;;;;;;15.00;99.90;;;;;;4974726;28;19910;-70
2021/10/22 01:03:27;;;;;;;;;;;15.00;99.90;;;;;;4975152;28;19906;-69
2021/10/22 01:05:53;;;;;;;;;;;15.00;99.90;;;;;;4973632;28;19906;-68
2021/10/22 01:08:19;;;;;;;;;;;15.00;99.90;;;;;;4974608;28;19934;-69
2021/10/22 01:10:44;;;;;;;;;;;15.00;99.90;;;;;;4974561;28;19968;-69
2021/10/22 01:13:10;;;;;;;;;;;15.00;99.90;;;;;;4974931;28;19910;-70
2021/10/22 01:15:36;;;;;;;;;;;15.00;99.90;;;;;;4974606;28;19918;-69
2021/10/22 01:18:02;;;;;;;;;;;15.00;99.90;;;;;;4973454;28;20355;-69
2021/10/22 01:20:28;;;;;;;;;;;15.00;99.90;;;;;;4974751;28;19910;-70
2021/10/22 01:22:54;;;;;;;;;;;15.00;99.90;;;;;;4974760;28;19906;-68
2021/10/22 01:25:30;;;;;;;;;;;15.00;99.90;;;;;;4973422;28;19906;-69
2021/10/22 01:27:56;;;;;;;;;;;15.00;99.90;;;;;;4973457;28;20240;-70
2021/10/22 01:30:23;;;;;;;;;;;14.90;99.90;;;;;;4973349;28;19917;-71
2021/10/22 01:32:50;;;;;;;;;;;15.00;99.90;;;;;;4974680;28;20382;-69
2021/10/22 01:35:16;;;;;;;;;;;14.90;99.90;;;;;;4974926;28;20357;-69
2021/10/22 01:37:41;;;;;;;;;;;15.00;99.90;;;;;;4974598;28;20024;-70
2021/10/22 01:40:08;;;;;;;;;;;15.00;99.90;;;;;;4974474;28;19937;-70
2021/10/22 01:42:34;;;;;;;;;;;15.00;99.90;;;;;;4975377;28;19910;-69
2021/10/22 01:44:59;;;;;;;;;;;15.00;99.90;;;;;;4978418;28;19922;-68
2021/10/22 01:47:25;;;;;;;;;;;15.00;99.90;;;;;;4978390;28;19910;-70
2021/10/22 01:49:51;;;;;;;;;;;15.00;99.90;;;;;;4978643;28;19906;-71
2021/10/22 01:52:17;;;;;;;;;;;15.00;99.90;;;;;;4978332;28;19992;-71
2021/10/22 01:54:43;;;;;;;;;;;15.00;99.90;;;;;;4978322;28;19916;-72
2021/10/22 01:57:10;;;;;;;;;;;15.00;99.90;;;;;;4978544;28;19980;-69
2021/10/22 01:59:36;;;;;;;;;;;15.00;99.90;;;;;;4978080;28;20362;-71
2021/10/22 02:02:02;;;;;;;;;;;15.00;99.90;;;;;;4976922;28;20006;-66
2021/10/22 02:04:28;;;;;;;;;;;14.90;99.90;;;;;;4976810;28;20005;-66
2021/10/22 02:06:54;;;;;;;;;;;14.90;99.90;;;;;;4976781;28;20454;-66
2021/10/22 02:09:20;;;;;;;;;;;14.90;99.90;;;;;;4976719;28;19934;-71
2021/10/22 02:11:46;;;;;;;;;;;14.90;99.90;;;;;;4978003;28;19906;-67
2021/10/22 02:14:15;;;;;;;;;;;14.90;99.90;;;;;;4977898;28;19912;-66
2021/10/22 02:16:44;;;;;;;;;;;14.80;99.90;;;;;;4977419;28;20008;-67
2021/10/22 02:19:10;;;;;;;;;;;14.80;99.90;;;;;;4977761;28;19914;-67
2021/10/22 02:21:36;;;;;;;;;;;14.80;99.90;;;;;;4976508;28;19964;-67
2021/10/22 02:24:02;;;;;;;;;;;14.80;99.90;;;;;;4976451;28;20299;-68
2021/10/22 02:26:28;;;;;;;;;;;14.80;99.90;;;;;;4978072;28;19914;-66
2021/10/22 02:28:53;;;;;;;;;;;14.70;99.90;;;;;;4977357;28;19929;-69
2021/10/22 02:31:20;;;;;;;;;;;14.70;99.90;;;;;;4977898;28;20004;-68
2021/10/22 02:33:46;;;;;;;;;;;14.70;99.90;;;;;;4977614;28;19906;-67
2021/10/22 02:36:12;;;;;;;;;;;14.70;99.90;;;;;;4976244;28;20307;-69
2021/10/22 02:38:38;;;;;;;;;;;14.70;99.90;;;;;;4977413;28;19965;-67
2021/10/22 02:41:04;;;;;;;;;;;14.60;99.90;;;;;;4976107;28;19909;-67
2021/10/22 02:43:29;;;;;;;;;;;14.60;99.90;;;;;;4977488;28;20397;-68
2021/10/22 02:45:55;;;;;;;;;;;14.70;99.90;;;;;;4977650;28;19910;-68
2021/10/22 02:48:21;;;;;;;;;;;14.60;99.90;;;;;;4977354;28;19941;-69
2021/10/22 02:50:47;;;;;;;;;;;14.60;99.90;;;;;;4975946;28;20421;-69
2021/10/22 02:53:13;;;;;;;;;;;14.50;99.90;;;;;;4977301;28;20013;-67
2021/10/22 02:55:38;;;;;;;;;;;14.60;99.90;;;;;;4976642;28;19945;-67
2021/10/22 02:58:04;;;;;;;;;;;14.50;99.90;;;;;;4977092;28;19906;-69
2021/10/22 03:00:30;;;;;;;;;;;14.50;99.90;;;;;;4975779;28;19910;-68
2021/10/22 03:02:55;;;;;;;;;;;14.50;99.90;;;;;;4977062;28;19906;-69
2021/10/22 03:05:21;;;;;;;;;;;14.50;99.90;;;;;;4975729;28;19913;-69
2021/10/22 03:07:49;;;;;;;;;;;14.60;99.90;;;;;;4976976;28;19906;-69
2021/10/22 03:10:15;;;;;;;;;;;14.50;99.90;;;;;;4975660;28;19906;-70
2021/10/22 03:12:41;;;;;;;;;;;14.60;99.90;;;;;;4976891;28;19906;-68
2021/10/22 03:15:07;;;;;;;;;;;14.60;99.90;;;;;;4976650;28;19906;-70
2021/10/22 03:17:33;;;;;;;;;;;14.60;99.90;;;;;;4976772;28;20052;-70
2021/10/22 03:19:59;;;;;;;;;;;14.60;99.90;;;;;;4976331;28;20008;-69
2021/10/22 03:22:24;;;;;;;;;;;14.60;99.90;;;;;;4975505;28;19930;-70
2021/10/22 03:24:51;;;;;;;;;;;14.50;99.90;;;;;;4976681;28;19910;-69
2021/10/22 03:27:18;;;;;;;;;;;14.50;99.90;;;;;;4975371;28;19913;-68
2021/10/22 03:29:44;;;;;;;;;;;14.50;99.90;;;;;;4976581;28;19952;-68
2021/10/22 03:32:09;;;;;;;;;;;14.40;99.90;;;;;;4976243;28;19910;-66
2021/10/22 03:34:35;;;;;;;;;;;14.40;99.90;;;;;;4976501;28;19943;-69
2021/10/22 03:37:01;;;;;;;;;;;14.40;99.90;;;;;;4975192;28;19910;-69
2021/10/22 03:39:27;;;;;;;;;;;14.40;99.90;;;;;;4976354;28;20266;-68
2021/10/22 03:41:53;;;;;;;;;;;14.50;99.90;;;;;;4976314;28;19939;-69
2021/10/22 03:44:19;;;;;;;;;;;14.50;99.90;;;;;;4975036;28;19913;-69
2021/10/22 03:46:44;;;;;;;;;;;14.50;99.90;;;;;;4974972;28;19906;-69
2021/10/22 03:49:10;;;;;;;;;;;14.50;99.90;;;;;;4975945;28;20310;-70
2021/10/22 03:51:36;;;;;;;;;;;14.50;99.90;;;;;;4976415;28;19957;-70
2021/10/22 03:54:05;;;;;;;;;;;14.50;99.90;;;;;;4974888;28;19914;-69
2021/10/22 03:56:31;;;;;;;;;;;14.50;99.90;;;;;;4975788;28;20365;-70
2021/10/22 03:58:56;;;;;;;;;;;14.50;99.90;;;;;;4975971;28;20009;-70
2021/10/22 04:01:22;;;;;;;;;;;14.50;99.90;;;;;;4975968;28;19925;-68
2021/10/22 04:03:48;;;;;;;;;;;14.40;99.90;;;;;;4974663;28;19910;-69
2021/10/22 04:06:14;;;;;;;;;;;14.30;99.90;;;;;;4975596;28;19906;-69
2021/10/22 04:08:40;;;;;;;;;;;14.20;99.90;;;;;;4974535;28;19907;-68
2021/10/22 04:11:05;;;;;;;;;;;14.20;99.90;;;;;;4974419;28;20355;-69
2021/10/22 04:13:31;;;;;;;;;;;14.10;99.90;;;;;;4975798;28;19913;-68
2021/10/22 04:15:57;;;;;;;;;;;14.10;99.90;;;;;;4974053;28;19918;-69
2021/10/22 04:18:26;;;;;;;;;;;14.10;99.90;;;;;;4975874;28;20409;-69
2021/10/22 04:20:52;;;;;;;;;;;14.10;99.90;;;;;;4975644;28;19914;-70
2021/10/22 04:23:18;;;;;;;;;;;14.20;99.90;;;;;;4975895;28;19909;-68
2021/10/22 04:25:44;;;;;;;;;;;14.30;99.90;;;;;;4975285;28;20663;-69
2021/10/22 04:28:10;;;;;;;;;;;14.30;99.90;;;;;;4975538;28;19917;-68
2021/10/22 04:30:36;;;;;;;;;;;14.30;99.90;;;;;;4975694;28;19906;-68
2021/10/22 04:33:02;;;;;;;;;;;14.30;99.90;;;;;;4974110;28;19906;-68
2021/10/22 04:35:30;;;;;;;;;;;14.30;99.90;;;;;;4975336;28;19906;-69
2021/10/22 04:40:31;;;;;;;;;;;14.30;99.90;;;;;;4975198;28;20009;-70
2021/10/22 04:43:01;;;;;;;;;;;14.30;99.90;;;;;;4975016;28;19906;-69
2021/10/22 04:45:28;;;;;;;;;;;14.30;99.90;;;;;;4973899;28;19941;-69
2021/10/22 04:47:54;;;;;;;;;;;14.30;99.90;;;;;;4975186;28;19992;-69
2021/10/22 04:50:20;;;;;;;;;;;14.30;99.90;;;;;;4975157;28;19997;-69
2021/10/22 04:52:53;;;;;;;;;;;14.30;99.90;;;;;;4975011;28;19906;-69
2021/10/22 04:55:18;;;;;;;;;;;14.30;99.90;;;;;;4975057;28;20272;-68
2021/10/22 04:57:44;;;;;;;;;;;14.30;99.90;;;;;;4973744;28;19906;-70
2021/10/22 05:00:10;;;;;;;;;;;14.30;99.90;;;;;;4974948;28;19956;-69
2021/10/22 05:02:36;;;;;;;;;;;14.30;99.90;;;;;;4973666;28;19910;-69
2021/10/22 05:05:02;;;;;;;;;;;14.30;99.90;;;;;;4973709;28;19906;-69
2021/10/22 05:07:27;;;;;;;;;;;14.30;99.90;;;;;;4973634;28;20425;-69
2021/10/22 05:09:53;;;;;;;;;;;14.30;99.90;;;;;;4974624;28;19961;-69
2021/10/22 05:12:19;;;;;;;;;;;14.30;99.90;;;;;;4974841;28;19906;-71
2021/10/22 05:14:44;;;;;;;;;;;14.30;99.90;;;;;;4973474;28;20339;-68
2021/10/22 05:17:10;;;;;;;;;;;14.30;99.90;;;;;;4973934;28;19918;-68
2021/10/22 05:19:36;;;;;;;;;;;14.20;99.90;;;;;;4974613;28;19964;-66
2021/10/22 05:22:01;;;;;;;;;;;14.20;99.90;;;;;;4973299;28;19917;-68
2021/10/22 05:24:27;;;;;;;;;;;14.20;99.90;;;;;;4974778;28;19906;-69
2021/10/22 05:26:53;;;;;;;;;;;14.20;99.90;;;;;;4981557;28;19906;-67
2021/10/22 05:29:18;;;;;;;;;;;14.20;99.90;;;;;;4981228;28;20630;-66
2021/10/22 05:31:44;;;;;;;;;;;14.20;99.90;;;;;;4974507;28;20355;-67
2021/10/22 05:34:10;;;;;;;;;;;14.30;99.90;;;;;;4973207;28;20024;-68
2021/10/22 05:36:35;;;;;;;;;;;14.30;99.90;;;;;;4974514;28;19977;-68
2021/10/22 05:39:01;;;;;;;;;;;14.40;99.90;;;;;;4972975;28;19910;-65
2021/10/22 05:41:27;;;;;;;;;;;14.40;99.90;;;;;;4974429;28;19954;-67
2021/10/22 05:43:53;;;;;;;;;;;14.40;99.90;;;;;;4974353;28;19913;-67
2021/10/22 05:46:18;;;;;;;;;;;14.50;99.90;;;;;;4974350;28;19928;-68
2021/10/22 05:48:45;;;;;;;;;;;14.50;99.90;;;;;;4974300;28;19912;-68
2021/10/22 05:51:11;;;;;;;;;;;14.50;99.90;;;;;;4972902;28;20343;-69
2021/10/22 05:53:37;;;;;;;;;;;14.50;99.90;;;;;;4974333;28;19958;-67
2021/10/22 05:56:03;;;;;;;;;;;14.50;99.90;;;;;;4973934;28;20333;-68
2021/10/22 05:58:29;;;;;;;;;;;14.50;99.90;;;;;;4974174;28;20008;-67
2021/10/22 06:00:55;;;;;;;;;;;14.60;99.90;;;;;;4972977;28;19992;-69
2021/10/22 06:03:20;;;;;;;;;;;14.60;99.90;;;;;;4974202;28;20422;-69
2021/10/22 06:05:51;;;;;;;;;;;14.70;99.90;;;;;;4973815;28;20313;-70
2021/10/22 06:08:18;;;;;;;;;;;14.70;99.90;;;;;;4974337;28;19910;-66
2021/10/22 06:10:44;;;;;;;;;;;14.70;99.90;;;;;;4974316;28;19914;-68
2021/10/22 06:13:10;;;;;;;;;;;14.70;99.90;;;;;;4974578;28;19906;-69
2021/10/22 06:15:36;;;;;;;;;;;14.80;99.90;;;;;;4972717;28;19918;-67
2021/10/22 06:18:02;;;;;;;;;;;14.80;99.90;;;;;;4972947;28;20021;-69
2021/10/22 06:20:32;;;;;;;;;;;14.80;99.90;;;;;;4974146;28;19921;-68
2021/10/22 06:25:37;;;;;;;;;;;14.70;99.90;;;;;;4974174;28;19913;-70
2021/10/22 06:28:05;;;;;;;;;;;14.70;99.90;;;;;;4972838;28;19914;-67
2021/10/22 06:30:31;;;;;;;;;;;14.60;99.90;;;;;;4975888;28;20351;-67
2021/10/22 06:32:57;;;;;;;;;;;14.70;99.90;;;;;;4975974;28;19997;-70
2021/10/22 06:35:22;;;;;;;;;;;14.70;99.90;;;;;;4977933;28;20000;-67
2021/10/22 06:37:49;;;;;;;;;;;14.70;99.90;;;;;;4977423;28;19910;-68
2021/10/22 06:40:15;;;;;;;;;;;14.70;99.90;;;;;;4976012;28;19914;-68
2021/10/22 06:42:41;;;;;;;;;;;14.70;99.90;;;;;;4976056;28;20001;-67
2021/10/22 06:45:07;;;;;;;;;;;14.70;99.90;;;;;;4977310;28;20343;-70
2021/10/22 06:47:32;;;;;;;;;;;14.70;99.90;;;;;;4976014;28;19910;-71
2021/10/22 06:49:58;;;;;;;;;;;14.70;99.90;;;;;;4984795;28;19976;-67
2021/10/22 06:52:24;;;;;;;;;;;14.60;99.90;;;;;;4995512;28;19906;-68
2021/10/22 06:54:49;;;;;;;;;;;14.60;99.90;;;;;;4996615;28;19906;-69
2021/10/22 06:57:15;;;;;;;;;;;14.60;99.90;;;;;;4996407;28;19917;-71
2021/10/22 06:59:41;;;;;;;;;;;14.60;99.90;;;;;;4996402;28;19913;-71
2021/10/22 07:02:06;;;;;;;;;;;14.60;99.90;;;;;;4996385;28;19917;-66
2021/10/22 07:04:32;;;;;;;;;;;14.60;99.90;;;;;;4996305;28;19909;-66
2021/10/22 07:07:16;;;;;;;;;;;14.60;99.90;;;;;;4980628;28;19952;-65
2021/10/22 07:09:46;;;;;;;;;;;14.70;99.90;;;;;;4986756;28;19996;-64
2021/10/22 07:12:12;;;;;;;;;;;14.70;99.90;;;;;;4994305;28;19910;-69
2021/10/22 07:14:38;;;;;;;;;;;14.80;99.90;;;;;;4996118;28;20274;-68
2021/10/22 07:17:04;;;;;;;;;;;14.80;99.90;;;;;;4994186;28;20008;-68
2021/10/22 07:19:30;;;;;;;;;;;14.90;99.90;;;;;;4994553;28;20017;-67
2021/10/22 07:22:02;;;;;;;;;;;15.00;99.90;;;;;;4996006;28;19934;-67
2021/10/22 07:24:28;;;;;;;;;;;15.10;99.90;;;;;;4995616;28;19909;-68
2021/10/22 07:26:53;;;;;;;;;;;15.10;99.90;;;;;;4995827;28;20309;-67
2021/10/22 07:29:19;;;;;;;;;;;15.20;99.90;;;;;;4987382;28;19905;-68
2021/10/22 07:31:45;;;;;;;;;;;15.30;99.90;;;;;;4995469;28;20361;-69
2021/10/22 07:34:14;;;;;;;;;;;15.30;99.90;;;;;;4995250;28;20347;-68
2021/10/22 07:36:40;;;;;;;;;;;15.40;99.90;;;;;;4995508;28;19988;-66
2021/10/22 07:39:06;;;;;;;;;;;15.40;99.90;;;;;;4995424;28;19977;-65
2021/10/22 07:41:32;;;;;;;;;;;15.40;99.90;;;;;;4994794;28;20275;-66
2021/10/22 07:43:58;;;;;;;;;;;15.40;99.90;;;;;;4995451;28;19906;-69
2021/10/22 07:46:23;;;;;;;;;;;15.50;99.90;;;;;;4995413;28;19964;-68
2021/10/22 07:48:49;;;;;;;;;;;15.50;99.90;;;;;;4993560;28;19909;-68
2021/10/22 07:51:15;;;;;;;;;;;15.50;99.90;;;;;;4993493;28;19936;-65
2021/10/22 07:53:41;;;;;;;;;;;15.50;99.90;;;;;;4993314;28;19906;-65
2021/10/22 07:56:07;;;;;;;;;;;15.50;99.90;;;;;;4994033;28;19906;-68
2021/10/22 07:58:32;;;;;;;;;;;15.60;99.90;;;;;;4994996;28;19953;-68
2021/10/22 08:00:58;;;;;;;;;;;15.70;99.90;;;;;;4995113;28;19960;-70
2021/10/22 08:03:25;;;;;;;;;;;15.80;99.90;;;;;;4995125;28;19992;-71
2021/10/22 08:05:50;;;;;;;;;;;15.80;99.90;;;;;;4995134;28;19964;-69
2021/10/22 08:08:16;;;;;;;;;;;15.90;99.90;;;;;;4995121;28;19906;-70
2021/10/22 08:10:42;;;;;;;;;;;15.90;99.90;;;;;;4993641;28;19910;-71
2021/10/22 08:13:12;;;;;;;;;;;16.00;99.90;;;;;;4994696;28;20266;-68
2021/10/22 08:15:41;;;;;;;;;;;16.00;99.90;;;;;;4994391;28;20020;-69
2021/10/22 08:18:08;;;;;;;;;;;15.80;99.90;;;;;;4994678;28;20322;-67
2021/10/22 08:20:35;;;;;;;;;;;15.90;99.90;;;;;;4994954;28;19909;-66
2021/10/22 08:23:02;;;;;;;;;;;15.90;99.90;;;;;;4994660;28;19909;-67
2021/10/22 08:25:27;;;;;;;;;;;15.90;99.90;;;;;;4994831;28;19933;-66
2021/10/22 08:27:53;;;;;;;;;;;15.90;99.90;;;;;;4993184;28;19956;-66
2021/10/22 08:30:24;;;;;;;;;;;15.90;99.90;;;;;;4993511;28;19913;-67
2021/10/22 08:32:50;;;;;;;;;;;16.00;99.90;;;;;;4993446;28;20369;-66
2021/10/22 08:35:17;;;;;;;;;;;16.10;99.90;;;;;;4994564;28;19996;-68
2021/10/22 08:37:43;;;;;;;;;;;16.10;99.90;;;;;;4994321;28;19916;-67
2021/10/22 08:40:09;;;;;;;;;;;16.10;99.90;;;;;;4994507;28;19909;-68
2021/10/22 08:42:36;;;;;;;;;;;16.00;99.90;;;;;;4994214;28;19909;-69
2021/10/22 08:45:02;;;;;;;;;;;15.90;99.90;;;;;;4994253;28;20351;-67
2021/10/22 08:47:29;;;;;;;;;;;15.90;99.90;;;;;;4994432;28;19909;-68
2021/10/22 08:49:58;;;;;;;;;;;15.90;99.90;;;;;;4994314;28;19905;-66
2021/10/22 08:52:26;;;;;;;;;;;15.90;99.90;;;;;;4993707;28;20339;-64
2021/10/22 08:54:52;;;;;;;;;;;15.90;99.90;;;;;;4994334;28;19906;-65
2021/10/22 08:57:17;;;;;;;;;;;16.00;99.90;;;;;;4994171;28;19909;-65
2021/10/22 08:59:43;;;;;;;;;;;16.10;99.90;;;;;;4993874;28;20004;-67
2021/10/22 09:02:14;;;;;;;;;;;16.20;99.90;;;;;;4992768;28;19913;-66
2021/10/22 09:04:41;;;;;;;;;;;16.20;99.90;;;;;;4994252;28;19910;-70
2021/10/22 09:07:06;;;;;;;;;;;16.20;99.90;;;;;;4994112;28;19905;-67
2021/10/22 09:09:32;;;;;;;;;;;16.20;99.90;;;;;;4988260;28;19955;-69
2021/10/22 09:11:58;;;;;;;;;;;16.30;99.90;;;;;;4986285;28;19961;-70
2021/10/22 09:14:26;;;;;;;;;;;16.20;99.90;;;;;;4994071;28;19910;-69
2021/10/22 09:16:53;;;;;;;;;;;16.10;99.90;;;;;;4993967;28;19918;-68
2021/10/22 09:19:33;;;;;;;;;;;15.90;99.90;;;;;;4993903;28;19977;-68
2021/10/22 09:22:17;;;;;;;;;;;15.90;99.90;;;;;;4994029;28;19909;-67
2021/10/22 09:24:48;;;;;;;;;;;15.80;99.90;;;;;;4981007;28;19925;-65
2021/10/22 09:27:29;;;;;;;;;;;15.70;99.90;;;;;;4974298;28;19997;-65
2021/10/22 09:29:54;;;;;;;;;;;15.70;99.90;;;;;;4973223;28;19906;-65
2021/10/22 09:32:20;;;;;;;;;;;15.70;99.90;;;;;;4973292;28;19906;-65
2021/10/22 09:34:50;;;;;;;;;;;15.80;99.90;;;;;;4974410;28;19932;-66
2021/10/22 09:37:16;;;;;;;;;;;15.90;99.90;;;;;;4973479;28;19906;-69
2021/10/22 09:39:41;;;;;;;;;;;16.00;99.90;;;;;;4974145;28;19921;-68
2021/10/22 09:42:14;;;;;;;;;;;16.10;99.90;;;;;;4974370;28;19914;-67
2021/10/22 09:44:41;;;;;;;;;;;16.20;99.90;;;;;;4974320;28;19933;-69
2021/10/22 09:47:07;;;;;;;;;;;16.30;99.90;;;;;;4974653;28;19917;-67
2021/10/22 09:49:38;;;;;;;;;;;16.40;99.90;;;;;;4974107;28;19997;-69
2021/10/22 09:52:12;;;;;;;;;;;16.50;99.90;;;;;;4972875;28;19910;-70
2021/10/22 09:54:38;;;;;;;;;;;16.60;99.90;;;;;;4987348;28;19916;-68
2021/10/22 09:57:05;;;;;;;;;;;16.50;99.90;;;;;;4993976;28;19906;-66
2021/10/22 09:59:32;;;;;;;;;;;16.60;99.90;;;;;;4993407;28;19971;-67
2021/10/22 10:01:58;;;;;;;;;;;16.80;99.90;;;;;;4993630;28;19940;-69
2021/10/22 10:04:25;;;;;;;;;;;16.90;99.90;;;;;;4995676;28;19905;-69
2021/10/22 10:06:52;;;;;;;;;;;17.10;99.90;;;;;;4997332;28;20274;-66
2021/10/22 10:09:18;;;;;;;;;;;17.20;99.90;;;;;;4997153;28;20634;-65
2021/10/22 10:11:44;;;;;;;;;;;17.30;99.90;;;;;;4997180;28;19905;-67
2021/10/22 10:14:14;;;;;;;;;;;17.30;99.90;;;;;;4997194;28;19906;-66
2021/10/22 10:16:41;;;;;;;;;;;17.40;99.90;;;;;;4985327;28;19918;-69
2021/10/22 10:19:22;;;;;;;;;;;17.60;99.90;;;;;;4985999;28;20345;-69
2021/10/22 10:21:49;;;;;;;;;;;17.70;99.90;;;;;;4997050;28;19957;-66
2021/10/22 10:24:19;;;;;;;;;;;17.80;99.90;;;;;;4996950;28;19996;-66
2021/10/22 10:26:59;;;;;;;;;;;17.90;99.90;;;;;;4995510;28;20351;-70
2021/10/22 10:29:29;;;;;;;;;;;18.00;99.90;;;;;;4996870;28;19909;-67
2021/10/22 10:32:05;;;;;;;;;;;18.00;99.90;;;;;;4996876;28;19910;-67
2021/10/22 10:34:30;;;;;;;;;;;18.10;99.90;;;;;;4995298;28;19905;-67
2021/10/22 10:36:59;;;;;;;;;;;18.00;99.90;;;;;;4986208;28;19952;-66
2021/10/22 10:39:44;;;;;;;;;;;18.10;99.90;;;;;;4996554;28;19992;-65
2021/10/22 10:42:26;;;;;;;;;;;18.20;99.90;;;;;;4995093;28;19910;-66
2021/10/22 10:44:59;;;;;;;;;;;18.30;99.90;;;;;;4994958;28;20307;-67
2021/10/22 10:47:28;;;;;;;;;;;18.40;99.90;;;;;;4995226;28;19905;-67
2021/10/22 10:49:54;;;;;;;;;;;18.40;99.90;;;;;;4995673;28;19968;-66
2021/10/22 10:52:34;;;;;;;;;;;18.30;99.90;;;;;;4995594;28;19906;-67
2021/10/22 10:55:13;;;;;;;;;;;18.30;99.90;;;;;;4995929;28;19945;-66
2021/10/22 10:57:49;;;;;;;;;;;18.20;99.90;;;;;;4996430;28;19906;-68
2021/10/22 11:00:15;;;;;;;;;;;18.30;99.90;;;;;;4996193;28;20424;-69
2021/10/22 11:03:00;;;;;;;;;;;18.70;99.10;;;;;;4996326;28;19910;-68
2021/10/22 11:05:44;;;;;;;;;;;18.90;98.30;;;;;;4996389;28;19910;-68
2021/10/22 11:08:23;;;;;;;;;;;19.10;97.40;;;;;;4994985;28;19905;-65
2021/10/22 11:10:58;;;;;;;;;;;18.90;97.40;;;;;;4996318;28;19963;-67
2021/10/22 11:13:24;;;;;;;;;;;18.70;97.60;;;;;;4994944;28;19906;-66
2021/10/22 11:15:50;;;;;;;;;;;18.60;98.00;;;;;;4994035;28;20255;-67
2021/10/22 11:18:17;;;;;;;;;;;18.70;97.70;;;;;;4996119;28;19914;-68
2021/10/22 11:20:43;;;;;;;;;;;18.70;97.80;;;;;;4996259;28;19917;-66
2021/10/22 11:23:12;;;;;;;;;;;18.70;98.40;;;;;;4994849;28;19905;-68
2021/10/22 11:25:37;;;;;;;;;;;18.70;98.00;;;;;;4996112;28;19906;-67
2021/10/22 11:28:09;;;;;;;;;;;18.60;97.50;;;;;;4996104;28;19958;-68
2021/10/22 11:30:35;;;;;;;;;;;18.40;98.20;;;;;;4994740;28;19910;-69
2021/10/22 11:33:02;;;;;;;;;;;18.40;98.40;;;;;;4995993;28;20409;-67
2021/10/22 11:35:29;;;;;;;;;;;18.50;97.90;;;;;;4995788;28;20008;-69
2021/10/22 11:38:02;;;;;;;;;;;18.40;97.50;;;;;;4991100;28;20068;-68
2021/10/22 11:40:28;;;;;;;;;;;18.40;97.90;;;;;;4995037;28;19913;-68
2021/10/22 11:43:05;;;;;;;;;;;18.30;98.20;;;;;;4995457;28;19909;-67
2021/10/22 11:45:31;;;;;;;;;;;18.20;98.40;;;;;;4995752;28;19906;-68
2021/10/22 11:47:57;;;;;;;;;;;18.20;98.60;;;;;;4996001;28;19913;-66
2021/10/22 11:50:28;;;;;;;;;;;18.10;98.50;;;;;;4995693;28;19993;-66
2021/10/22 11:53:00;;;;;;;;;;;18.10;98.40;;;;;;4995679;28;19917;-66
2021/10/22 11:55:26;;;;;;;;;;;18.20;99.70;;;;;;4994192;28;19914;-69
2021/10/22 11:57:56;;;;;;;;;;;18.10;99.70;;;;;;4995616;28;19960;-66
2021/10/22 12:00:22;;;;;;;;;;;18.00;99.80;;;;;;4993825;28;19913;-66
2021/10/22 12:02:48;;;;;;;;;;;18.00;99.90;;;;;;4995442;28;19909;-67
2021/10/22 12:05:14;;;;;;;;;;;17.90;99.30;;;;;;4995307;28;19906;-68
2021/10/22 12:07:42;;;;;;;;;;;17.90;99.90;;;;;;4984000;28;20266;-68
2021/10/22 12:10:10;;;;;;;;;;;17.70;99.90;;;;;;4975256;28;20366;-67
2021/10/22 12:12:37;;;;;;;;;;;17.70;99.90;;;;;;4975636;28;19960;-68
2021/10/22 12:15:03;;;;;;;;;;;17.60;99.90;;;;;;4974280;28;19913;-68
2021/10/22 12:17:29;;;;;;;;;;;17.60;99.90;;;;;;4973778;28;19922;-68
2021/10/22 12:19:56;;;;;;;;;;;17.50;99.90;;;;;;4975547;28;19918;-69
2021/10/22 12:22:24;;;;;;;;;;;17.50;99.90;;;;;;4974273;28;19964;-69
2021/10/22 12:24:51;;;;;;;;;;;17.40;99.90;;;;;;4975434;28;20375;-70
2021/10/22 12:27:17;;;;;;;;;;;17.40;99.90;;;;;;4972735;28;19914;-71
2021/10/22 12:29:53;;;;;;;;;;;17.30;99.90;;;;;;4979114;28;19918;-70
2021/10/22 12:32:31;;;;;;;;;;;17.30;99.90;;;;;;4993312;28;19948;-70
2021/10/22 12:34:57;;;;;;;;;;;17.20;99.90;;;;;;4994456;28;20358;-69
2021/10/22 12:37:37;;;;;;;;;;;17.20;99.90;;;;;;4993329;28;19913;-70
2021/10/22 12:40:18;;;;;;;;;;;17.10;99.90;;;;;;4994540;28;19917;-68
2021/10/22 12:42:44;;;;;;;;;;;17.10;99.90;;;;;;4994526;28;20008;-70
2021/10/22 12:45:11;;;;;;;;;;;17.10;99.90;;;;;;4993080;28;19905;-71
2021/10/22 12:47:37;;;;;;;;;;;17.10;99.90;;;;;;4994467;28;19906;-71
2021/10/22 12:50:03;;;;;;;;;;;17.00;99.90;;;;;;4992963;28;19937;-70
2021/10/22 12:52:29;;;;;;;;;;;17.00;99.90;;;;;;4994141;28;20330;-70
2021/10/22 12:54:54;;;;;;;;;;;17.00;99.90;;;;;;4994424;28;19909;-71
2021/10/22 12:57:24;;;;;;;;;;;17.00;99.90;;;;;;4994248;28;20363;-70
2021/10/22 12:59:51;;;;;;;;;;;17.00;99.90;;;;;;4994180;28;19913;-71
2021/10/22 13:02:30;;;;;;;;;;;16.80;99.90;;;;;;4994277;28;19917;-71
2021/10/22 13:05:06;;;;;;;;;;;16.80;99.90;;;;;;4994070;28;19906;-71
2021/10/22 13:07:43;;;;;;;;;;;16.80;99.90;;;;;;4994053;28;19905;-71
2021/10/22 13:10:20;;;;;;;;;;;16.80;99.90;;;;;;4992710;28;19906;-70
2021/10/22 13:20:50;;;;;;;;;;;16.70;99.90;;;;;;4972259;28;19917;-69
2021/10/22 13:23:17;;;;;;;;;;;16.60;99.90;;;;;;4956302;28;20334;-70
2021/10/22 13:25:45;;;;;;;;;;;16.60;99.90;;;;;;4955809;28;19945;-70
2021/10/22 13:28:10;;;;;;;;;;;16.50;99.90;;;;;;4955904;28;20449;-70
2021/10/22 13:30:51;;;;;;;;;;;16.50;99.90;;;;;;4955505;28;20008;-70
2021/10/22 13:33:17;;;;;;;;;;;16.50;99.90;;;;;;4971842;28;20375;-69
2021/10/22 13:35:44;;;;;;;;;;;16.40;99.90;;;;;;4972074;28;19945;-69
2021/10/22 13:38:11;;;;;;;;;;;16.30;99.90;;;;;;4971982;28;20025;-69
2021/10/22 13:40:37;;;;;;;;;;;16.30;99.90;;;;;;4973944;28;19917;-69
2021/10/22 13:43:03;;;;;;;;;;;16.10;99.90;;;;;;4976103;28;19949;-69
2021/10/22 13:45:29;;;;;;;;;;;16.00;99.90;;;;;;4976029;28;20393;-69
2021/10/22 13:47:55;;;;;;;;;;;16.10;99.90;;;;;;4976063;28;19906;-70
2021/10/22 13:50:21;;;;;;;;;;;16.00;99.90;;;;;;4975906;28;19906;-70
2021/10/22 13:52:47;;;;;;;;;;;16.00;99.90;;;;;;4990075;28;19906;-69
2021/10/22 13:55:13;;;;;;;;;;;16.00;99.90;;;;;;4997737;28;20270;-69
2021/10/22 13:57:38;;;;;;;;;;;15.90;99.90;;;;;;4996485;28;20000;-69
2021/10/22 14:00:05;;;;;;;;;;;15.90;99.90;;;;;;4997586;28;19916;-70
2021/10/22 14:02:31;;;;;;;;;;;15.90;99.90;;;;;;4997596;28;19917;-69
2021/10/22 14:04:57;;;;;;;;;;;15.90;99.90;;;;;;4997568;28;20306;-69
2021/10/22 14:07:22;;;;;;;;;;;15.90;99.90;;;;;;4997521;28;19905;-70
2021/10/22 14:09:50;;;;;;;;;;;15.90;99.90;;;;;;4997211;28;19905;-69
2021/10/22 14:12:23;;;;;;;;;;;15.80;99.90;;;;;;4997492;28;19905;-69
2021/10/22 14:14:55;;;;;;;;;;;15.70;99.90;;;;;;4997602;28;19906;-70
2021/10/22 14:17:30;;;;;;;;;;;15.70;99.90;;;;;;4995687;28;19921;-68
2021/10/22 14:20:11;;;;;;;;;;;15.70;99.90;;;;;;4997372;28;19967;-69
2021/10/22 14:30:41;;;;;;;;;;;15.70;99.90;;;;;;4996948;28;19917;-68
2021/10/22 14:33:07;;;;;;;;;;;15.60;99.90;;;;;;4995813;28;19909;-68
2021/10/22 14:35:42;;;;;;;;;;;15.70;99.90;;;;;;4995766;28;19972;-66
2021/10/22 14:38:08;;;;;;;;;;;15.70;99.90;;;;;;4997077;28;19937;-69